createdAt,value
2022-07-30T00:01:37.073Z,100608.41
2022-07-30T00:04:07.238Z,100561.06
2022-07-30T00:06:37.979Z,100595.41
2022-07-30T00:09:07.019Z,100589.75
2022-07-30T00:11:35.615Z,100592.66
2022-07-30T00:14:09.116Z,100589.47
2022-07-30T00:16:37.943Z,100592.16
2022-07-30T00:19:07.057Z,100592.47
2022-07-30T00:21:39.025Z,100546.94
2022-07-30T00:24:09.152Z,100590.44
2022-07-30T00:26:38.044Z,100585.22
2022-07-30T00:29:08.389Z,100584.69
2022-07-30T00:31:37.005Z,100529.47
2022-07-30T00:34:06.004Z,100593.06
2022-07-30T00:36:40.317Z,100534.28
2022-07-30T00:39:09.289Z,100584.50
2022-07-30T00:41:55.855Z,100585.72
2022-07-30T00:44:26.135Z,100583.28
2022-07-30T00:46:55.182Z,100584.66
2022-07-30T00:49:24.374Z,100588.13
2022-07-30T00:51:53.699Z,100591.16
2022-07-30T00:54:22.772Z,100587.53
2022-07-30T00:56:52.124Z,100581.72
2022-07-30T00:59:21.044Z,100580.94
2022-07-30T01:01:51.029Z,100575.66
2022-07-30T01:04:19.819Z,100551.09
2022-07-30T01:06:48.909Z,100574.44
2022-07-30T01:09:17.511Z,100465.75
2022-07-30T01:11:46.239Z,100570.38
2022-07-30T01:14:15.436Z,100572.91
2022-07-30T01:16:46.083Z,100542.34
2022-07-30T01:19:41.899Z,100574.44
2022-07-30T01:22:20.341Z,100552.38
2022-07-30T01:24:59.957Z,100523.56
2022-07-30T01:27:32.503Z,100572.75
2022-07-30T01:30:05.827Z,100561.31
2022-07-30T01:32:40.280Z,100570.06
2022-07-30T01:35:13.919Z,100565.97
2022-07-30T01:37:45.536Z,100580.69
2022-07-30T01:40:15.928Z,100571.75
2022-07-30T01:42:49.707Z,100508.53
2022-07-30T01:45:20.379Z,100563.56
2022-07-30T01:47:52.226Z,100568.31
2022-07-30T01:50:23.697Z,100564.94
2022-07-30T01:52:55.968Z,100495.88
2022-07-30T01:55:31.745Z,100563.13
2022-07-30T01:58:04.695Z,100391.00
2022-07-30T02:00:40.219Z,100560.34
2022-07-30T02:03:09.659Z,100568.56
2022-07-30T02:05:42.392Z,100530.50
2022-07-30T02:08:19.888Z,100480.13
2022-07-30T02:11:00.061Z,100539.41
2022-07-30T02:13:33.697Z,100515.94
2022-07-30T02:16:15.495Z,100553.69
2022-07-30T02:18:57.100Z,100528.69
2022-07-30T02:21:36.734Z,100500.81
2022-07-30T02:24:13.081Z,100531.38
2022-07-30T02:26:46.410Z,100548.31
2022-07-30T02:29:19.001Z,100541.16
2022-07-30T02:31:50.021Z,100514.56
2022-07-30T02:34:24.364Z,100552.81
2022-07-30T02:36:55.303Z,100474.25
2022-07-30T02:39:25.056Z,100529.78
2022-07-30T02:41:57.857Z,100497.53
2022-07-30T02:44:32.086Z,100548.75
2022-07-30T02:47:04.843Z,100548.69
2022-07-30T02:49:55.274Z,100472.19
2022-07-30T02:52:27.862Z,100541.38
2022-07-30T02:55:00.410Z,100533.47
2022-07-30T02:57:32.730Z,100539.75
2022-07-30T03:00:04.402Z,100490.44
2022-07-30T03:02:35.059Z,100408.31
2022-07-30T03:05:09.617Z,100537.41
2022-07-30T03:07:40.388Z,100315.88
2022-07-30T03:10:10.699Z,100538.28
2022-07-30T03:12:42.779Z,100405.94
2022-07-30T03:15:13.810Z,100503.03
2022-07-30T03:17:55.652Z,100546.59
2022-07-30T03:20:31.979Z,100527.88
2022-07-30T03:23:03.877Z,100479.38
2022-07-30T03:25:34.750Z,100540.06
2022-07-30T03:28:07.012Z,100513.25
2022-07-30T03:30:37.713Z,100514.28
2022-07-30T03:33:08.064Z,100547.31
2022-07-30T03:35:37.287Z,100553.75
2022-07-30T03:38:08.150Z,100548.13
2022-07-30T03:40:37.281Z,100552.38
2022-07-30T03:43:18.561Z,100542.81
2022-07-30T03:45:58.765Z,100543.97
2022-07-30T03:48:31.562Z,100543.78
2022-07-30T03:51:03.222Z,100539.28
2022-07-30T03:53:33.870Z,100530.78
2022-07-30T03:56:28.883Z,100548.19
2022-07-30T03:58:57.573Z,100547.25
2022-07-30T04:01:28.691Z,100542.81
2022-07-30T04:04:07.671Z,100544.63
2022-07-30T04:06:39.898Z,100541.81
2022-07-30T04:09:10.209Z,100551.59
2022-07-30T04:11:41.248Z,100549.78
2022-07-30T04:14:16.394Z,100547.97
2022-07-30T04:17:01.170Z,100530.13
2022-07-30T04:19:36.770Z,100522.75
2022-07-30T04:22:09.159Z,100557.47
2022-07-30T04:24:41.345Z,100554.72
2022-07-30T04:27:10.700Z,100556.34
2022-07-30T04:29:42.429Z,100561.66
2022-07-30T04:32:13.261Z,100573.06
2022-07-30T04:34:49.543Z,100572.97
2022-07-30T04:37:25.729Z,100554.56
2022-07-30T04:39:57.875Z,100575.31
2022-07-30T04:42:27.634Z,100546.94
2022-07-30T04:45:07.360Z,100557.91
2022-07-30T04:47:58.504Z,100564.50
2022-07-30T04:51:00.624Z,100584.50
2022-07-30T04:53:33.685Z,100585.09
2022-07-30T04:56:05.444Z,100469.56
2022-07-30T04:58:36.926Z,100589.78
2022-07-30T05:01:06.837Z,100549.78
2022-07-30T05:03:38.785Z,100589.69
2022-07-30T05:06:09.226Z,100589.44
2022-07-30T05:08:41.862Z,100532.25
2022-07-30T05:11:14.405Z,100592.19
2022-07-30T05:13:46.391Z,100559.06
2022-07-30T05:16:17.153Z,100595.66
2022-07-30T05:18:47.647Z,100599.91
2022-07-30T05:21:16.497Z,100599.59
2022-07-30T05:23:50.922Z,100562.25
2022-07-30T05:26:40.348Z,100607.72
2022-07-30T05:29:19.636Z,100606.53
2022-07-30T05:31:55.681Z,100610.81
2022-07-30T05:34:33.662Z,100567.38
2022-07-30T05:37:02.834Z,100620.69
2022-07-30T05:39:32.491Z,100613.25
2022-07-30T05:42:04.345Z,100619.31
2022-07-30T05:44:43.238Z,100597.34
2022-07-30T05:47:12.754Z,100613.78
2022-07-30T05:49:43.406Z,100625.97
2022-07-30T05:52:16.516Z,100614.03
2022-07-30T05:54:45.956Z,100572.75
2022-07-30T05:57:26.732Z,100626.75
2022-07-30T05:59:55.695Z,100632.72
2022-07-30T06:02:47.844Z,100633.19
2022-07-30T06:05:46.506Z,100629.72
2022-07-30T06:08:15.340Z,100629.03
2022-07-30T06:10:44.025Z,100570.66
2022-07-30T06:13:13.558Z,100634.22
2022-07-30T06:15:42.439Z,100594.13
2022-07-30T06:18:11.567Z,100645.22
2022-07-30T06:20:54.353Z,100650.56
2022-07-30T06:23:48.286Z,100640.00
2022-07-30T06:26:49.812Z,100644.50
2022-07-30T06:29:21.720Z,100650.66
2022-07-30T06:31:50.445Z,100631.69
2022-07-30T06:34:19.160Z,100658.09
2022-07-30T06:36:49.680Z,100649.28
2022-07-30T06:39:56.810Z,100657.50
2022-07-30T06:42:17.227Z,100659.34
2022-07-30T06:45:07.635Z,100667.31
2022-07-30T06:48:11.580Z,100666.25
2022-07-30T06:50:41.573Z,100649.97
2022-07-30T06:53:11.847Z,100666.53
2022-07-30T06:56:00.607Z,100667.81
2022-07-30T06:58:37.607Z,100667.81
2022-07-30T07:01:25.131Z,100667.81
2022-07-30T07:03:55.491Z,100668.94
2022-07-30T07:06:24.347Z,100663.22
2022-07-30T07:08:54.348Z,100672.50
2022-07-30T07:11:31.218Z,100634.16
2022-07-30T07:14:04.878Z,100605.66
2022-07-30T07:16:37.305Z,100665.50
2022-07-30T07:19:59.470Z,100671.22
2022-07-30T07:22:14.177Z,100664.41
2022-07-30T07:24:47.282Z,100664.44
2022-07-30T07:27:24.098Z,100659.78
2022-07-30T07:30:04.666Z,100653.78
2022-07-30T07:32:37.971Z,100668.41
2022-07-30T07:35:07.978Z,100662.94
2022-07-30T07:37:39.990Z,100670.47
2022-07-30T07:40:13.233Z,100669.47
2022-07-30T07:42:44.262Z,100667.47
2022-07-30T07:45:13.705Z,100671.97
2022-07-30T07:47:52.950Z,100671.81
2022-07-30T07:50:59.671Z,100675.25
2022-07-30T07:53:31.761Z,100667.69
2022-07-30T07:56:02.035Z,100669.53
2022-07-30T07:58:31.447Z,100680.25
2022-07-30T08:01:02.955Z,100654.44
2022-07-30T08:03:50.528Z,100671.75
2022-07-30T08:06:37.785Z,100685.09
2022-07-30T08:09:25.339Z,100678.59
2022-07-30T08:12:10.468Z,100684.84
2022-07-30T08:14:57.995Z,100680.84
2022-07-30T08:17:57.065Z,100677.16
2022-07-30T08:20:39.674Z,100690.88
2022-07-30T08:23:08.972Z,100683.47
2022-07-30T08:25:37.578Z,100667.38
2022-07-30T08:28:07.863Z,100688.50
2022-07-30T08:30:59.156Z,100679.44
2022-07-30T08:33:31.104Z,100684.84
2022-07-30T08:36:04.198Z,100688.69
2022-07-30T08:38:38.968Z,100683.78
2022-07-30T08:41:08.657Z,100679.88
2022-07-30T08:43:39.478Z,100688.34
2022-07-30T08:46:14.547Z,100680.13
2022-07-30T08:48:56.334Z,100691.53
2022-07-30T08:51:26.701Z,100654.88
2022-07-30T08:54:14.709Z,100701.78
2022-07-30T08:56:45.794Z,100695.16
2022-07-30T08:59:16.061Z,100694.19
2022-07-30T09:01:45.098Z,100705.66
2022-07-30T09:04:14.452Z,100694.75
2022-07-30T09:06:43.210Z,100676.50
2022-07-30T09:09:12.462Z,100698.13
2022-07-30T09:11:43.046Z,100653.78
2022-07-30T09:14:14.386Z,100705.69
2022-07-30T09:16:46.493Z,100626.78
2022-07-30T09:19:19.120Z,100707.47
2022-07-30T09:21:58.318Z,100702.31
2022-07-30T09:24:47.191Z,100707.50
2022-07-30T09:27:47.789Z,100714.41
2022-07-30T09:30:49.387Z,100708.19
2022-07-30T09:33:41.825Z,100703.16
2022-07-30T09:36:34.133Z,100708.59
2022-07-30T09:39:36.814Z,100704.38
2022-07-30T09:42:25.166Z,100695.94
2022-07-30T09:45:08.119Z,100710.63
2022-07-30T09:47:41.265Z,100656.31
2022-07-30T09:50:18.080Z,100711.16
2022-07-30T09:53:11.877Z,100683.16
2022-07-30T09:55:44.854Z,100711.72
2022-07-30T09:58:19.980Z,100720.63
2022-07-30T10:01:00.539Z,100721.13
2022-07-30T10:03:52.582Z,100673.19
2022-07-30T10:06:38.055Z,100723.63
2022-07-30T10:09:30.787Z,100709.81
2022-07-30T10:12:11.236Z,100715.97
2022-07-30T10:14:48.409Z,100712.50
2022-07-30T10:17:20.915Z,100706.13
2022-07-30T10:20:12.326Z,100709.56
2022-07-30T10:23:08.950Z,100655.72
2022-07-30T10:25:49.176Z,100698.03
2022-07-30T10:28:43.674Z,100685.53
2022-07-30T10:31:49.181Z,100692.69
2022-07-30T10:34:03.344Z,100640.69
2022-07-30T10:36:33.319Z,100713.63
2022-07-30T10:39:04.462Z,100655.69
2022-07-30T10:41:54.130Z,100564.69
2022-07-30T10:45:00.991Z,100678.75
2022-07-30T10:47:35.531Z,100712.84
2022-07-30T10:50:12.550Z,100641.34
2022-07-30T10:52:51.656Z,100684.03
2022-07-30T10:55:37.004Z,100660.22
2022-07-30T10:58:10.003Z,100704.22
2022-07-30T11:01:01.852Z,100671.66
2022-07-30T11:03:41.192Z,100714.69
2022-07-30T11:06:30.510Z,100708.81
2022-07-30T11:08:59.735Z,100711.50
2022-07-30T11:12:01.308Z,100712.59
2022-07-30T11:15:06.828Z,100589.47
2022-07-30T11:18:12.869Z,100681.78
2022-07-30T11:20:48.807Z,100720.63
2022-07-30T11:23:39.355Z,100698.53
2022-07-30T11:26:10.274Z,100714.16
2022-07-30T11:28:49.384Z,100686.53
2022-07-30T11:31:49.882Z,100712.69
2022-07-30T11:34:31.138Z,100708.88
2022-07-30T11:37:19.226Z,100672.22
2022-07-30T11:40:12.314Z,100704.16
2022-07-30T11:42:43.725Z,100667.41
2022-07-30T11:45:33.610Z,100691.66
2022-07-30T11:48:04.799Z,100706.16
2022-07-30T11:50:36.134Z,100717.09
2022-07-30T11:53:08.139Z,100669.88
2022-07-30T11:55:40.309Z,100679.31
2022-07-30T11:58:12.070Z,100706.31
2022-07-30T12:00:47.939Z,100691.66
2022-07-30T12:03:20.260Z,100720.94
2022-07-30T12:05:51.235Z,100715.44
2022-07-30T12:08:33.451Z,100719.84
2022-07-30T12:11:05.053Z,100693.97
2022-07-30T12:13:45.034Z,100729.16
2022-07-30T12:16:18.466Z,100707.09
2022-07-30T12:18:48.737Z,100720.09
2022-07-30T12:21:17.775Z,100720.19
2022-07-30T12:23:57.431Z,100713.28
2022-07-30T12:26:29.079Z,100705.50
2022-07-30T12:29:00.518Z,100725.44
2022-07-30T12:31:30.802Z,100732.44
2022-07-30T12:34:00.765Z,100741.59
2022-07-30T12:36:32.696Z,100746.81
2022-07-30T12:39:03.606Z,100727.19
2022-07-30T12:41:44.263Z,100727.06
2022-07-30T12:44:37.277Z,100747.28
2022-07-30T12:47:24.166Z,100749.66
2022-07-30T12:49:54.101Z,100753.78
2022-07-30T12:52:29.434Z,100698.50
2022-07-30T12:55:02.840Z,100756.06
2022-07-30T12:58:05.372Z,100749.59
2022-07-30T13:00:52.307Z,100743.75
2022-07-30T13:03:24.296Z,100749.63
2022-07-30T13:05:55.966Z,100737.78
2022-07-30T13:08:53.986Z,100752.09
2022-07-30T13:11:25.249Z,100757.75
2022-07-30T13:13:54.668Z,100748.78
2022-07-30T13:16:23.409Z,100762.47
2022-07-30T13:18:53.422Z,100768.19
2022-07-30T13:21:22.073Z,100728.16
2022-07-30T13:23:50.937Z,100773.47
2022-07-30T13:26:20.062Z,100769.56
2022-07-30T13:28:48.721Z,100768.84
2022-07-30T13:31:18.321Z,100727.84
2022-07-30T13:33:46.903Z,100720.25
2022-07-30T13:36:17.013Z,100738.38
2022-07-30T13:38:45.696Z,100774.13
2022-07-30T13:41:20.824Z,100776.81
2022-07-30T13:43:49.432Z,100771.03
2022-07-30T13:46:19.207Z,100737.97
2022-07-30T13:48:48.139Z,100772.19
2022-07-30T13:51:18.859Z,100759.03
2022-07-30T13:53:47.689Z,100757.28
2022-07-30T13:56:16.963Z,100760.06
2022-07-30T13:58:49.242Z,100658.81
2022-07-30T14:01:18.560Z,100737.06
2022-07-30T14:03:50.557Z,100753.41
2022-07-30T14:06:21.458Z,100754.66
2022-07-30T14:08:50.209Z,100639.19
2022-07-30T14:11:19.168Z,100753.31
2022-07-30T14:13:47.953Z,100730.25
2022-07-30T14:16:42.524Z,100751.16
2022-07-30T14:19:05.988Z,100754.00
2022-07-30T14:21:35.993Z,100730.16
2022-07-30T14:24:07.907Z,100753.22
2022-07-30T14:26:37.464Z,100758.22
2022-07-30T14:29:06.842Z,100738.28
2022-07-30T14:31:35.975Z,100765.03
2022-07-30T14:34:05.800Z,100760.66
2022-07-30T14:36:37.509Z,100760.44
2022-07-30T14:39:06.678Z,100767.75
2022-07-30T14:41:35.299Z,100764.97
2022-07-30T14:44:04.287Z,100774.00
2022-07-30T14:46:33.233Z,100772.06
2022-07-30T14:49:01.969Z,100773.75
2022-07-30T14:51:34.600Z,100774.97
2022-07-30T14:54:05.339Z,100584.47
2022-07-30T14:56:34.448Z,100769.41
2022-07-30T14:59:03.039Z,100746.38
2022-07-30T15:01:32.058Z,100772.34
2022-07-30T15:04:01.092Z,100767.63
2022-07-30T15:06:30.057Z,100742.63
2022-07-30T15:08:58.775Z,100774.66
2022-07-30T15:11:31.102Z,100765.16
2022-07-30T15:14:05.313Z,100763.63
2022-07-30T15:16:34.562Z,100769.09
2022-07-30T15:19:03.194Z,100746.59
2022-07-30T15:21:32.112Z,100760.47
2022-07-30T15:24:00.836Z,100737.00
2022-07-30T15:26:30.813Z,100711.22
2022-07-30T15:28:59.725Z,100751.09
2022-07-30T15:31:29.028Z,100764.28
2022-07-30T15:33:58.216Z,100633.47
2022-07-30T15:36:27.282Z,100752.44
2022-07-30T15:38:56.317Z,100757.94
2022-07-30T15:41:24.930Z,100754.28
2022-07-30T15:43:55.068Z,100747.44
2022-07-30T15:46:23.789Z,100751.09
2022-07-30T15:48:52.443Z,100740.50
2022-07-30T15:51:21.514Z,100754.44
2022-07-30T15:53:50.272Z,100747.28
2022-07-30T15:56:19.001Z,100758.53
2022-07-30T15:58:47.542Z,100756.97
2022-07-30T16:01:17.827Z,100753.31
2022-07-30T16:03:46.557Z,100570.06
2022-07-30T16:06:15.605Z,100745.34
2022-07-30T16:08:44.240Z,100746.22
2022-07-30T16:11:12.901Z,100753.03
2022-07-30T16:13:41.880Z,100749.56
2022-07-30T16:16:10.771Z,100719.22
2022-07-30T16:18:40.789Z,100736.94
2022-07-30T16:21:09.632Z,100740.50
2022-07-30T16:23:39.471Z,100572.13
2022-07-30T16:26:08.246Z,100743.56
2022-07-30T16:28:36.875Z,100747.84
2022-07-30T16:31:06.731Z,100722.69
2022-07-30T16:33:35.563Z,100704.28
2022-07-30T16:36:06.094Z,100739.75
2022-07-30T16:38:34.808Z,100748.72
2022-07-30T16:41:03.432Z,100745.00
2022-07-30T16:43:32.264Z,100742.22
2022-07-30T16:46:01.140Z,100741.94
2022-07-30T16:48:32.268Z,100724.09
2022-07-30T16:51:01.363Z,100734.00
2022-07-30T16:53:31.437Z,100753.78
2022-07-30T16:56:01.219Z,100724.50
2022-07-30T16:58:30.820Z,100747.41
2022-07-30T17:00:59.902Z,100744.19
2022-07-30T17:03:28.839Z,100757.13
2022-07-30T17:05:57.743Z,100761.97
2022-07-30T17:08:26.447Z,100714.34
2022-07-30T17:10:57.959Z,100712.84
2022-07-30T17:13:26.816Z,100764.59
2022-07-30T17:15:55.745Z,100758.84
2022-07-30T17:18:24.542Z,100769.22
2022-07-30T17:20:53.423Z,100713.88
2022-07-30T17:23:22.518Z,100762.81
2022-07-30T17:25:51.493Z,100648.81
2022-07-30T17:28:26.906Z,100768.66
2022-07-30T17:30:56.365Z,100763.25
2022-07-30T17:33:25.048Z,100758.28
2022-07-30T17:35:53.870Z,100738.34
2022-07-30T17:38:22.778Z,100735.22
2022-07-30T17:40:51.511Z,100682.78
2022-07-30T17:43:21.575Z,100757.56
2022-07-30T17:45:50.598Z,100616.91
2022-07-30T17:48:19.302Z,100719.16
2022-07-30T17:50:48.001Z,100743.94
2022-07-30T17:53:17.014Z,100689.00
2022-07-30T17:55:57.537Z,100758.19
2022-07-30T17:58:28.392Z,100762.53
2022-07-30T18:00:58.642Z,100736.63
2022-07-30T18:03:27.318Z,100720.81
2022-07-30T18:05:56.306Z,100765.66
2022-07-30T18:08:25.891Z,100756.69
2022-07-30T18:10:54.562Z,100769.03
2022-07-30T18:13:27.081Z,100769.44
2022-07-30T18:15:58.302Z,100766.75
2022-07-30T18:18:27.122Z,100672.41
2022-07-30T18:20:55.689Z,100775.25
2022-07-30T18:23:24.504Z,100775.00
2022-07-30T18:26:03.301Z,100775.25
2022-07-30T18:28:32.089Z,100712.53
2022-07-30T18:31:02.315Z,100737.25
2022-07-30T18:33:31.307Z,100769.97
2022-07-30T18:36:00.251Z,100771.41
2022-07-30T18:38:29.203Z,100776.16
2022-07-30T18:41:02.496Z,100772.97
2022-07-30T18:43:32.528Z,100785.00
2022-07-30T18:46:18.288Z,100788.28
2022-07-30T18:48:48.822Z,100783.75
2022-07-30T18:51:18.713Z,100784.34
2022-07-30T18:53:47.629Z,100783.94
2022-07-30T18:56:16.542Z,100789.88
2022-07-30T18:58:45.302Z,100793.28
2022-07-30T19:01:14.421Z,100792.09
2022-07-30T19:03:44.682Z,100765.22
2022-07-30T19:06:14.878Z,100788.09
2022-07-30T19:08:43.834Z,100799.41
2022-07-30T19:11:12.548Z,100799.78
2022-07-30T19:13:41.350Z,100809.91
2022-07-30T19:16:10.674Z,100790.16
2022-07-30T19:18:39.399Z,100768.97
2022-07-30T19:21:13.930Z,100815.66
2022-07-30T19:23:43.200Z,100809.13
2022-07-30T19:26:13.869Z,100800.72
2022-07-30T19:28:42.817Z,100805.66
2022-07-30T19:31:11.704Z,100742.03
2022-07-30T19:33:41.406Z,100807.31
2022-07-30T19:36:13.013Z,100742.72
2022-07-30T19:38:44.287Z,100807.19
2022-07-30T19:41:14.150Z,100811.22
2022-07-30T19:43:43.179Z,100780.34
2022-07-30T19:46:26.486Z,100813.03
2022-07-30T19:48:55.310Z,100815.25
2022-07-30T19:51:25.641Z,100812.00
2022-07-30T19:54:15.297Z,100810.75
2022-07-30T19:56:46.414Z,100810.34
2022-07-30T19:59:15.777Z,100815.25
2022-07-30T20:01:51.726Z,100811.31
2022-07-30T20:04:20.911Z,100739.06
2022-07-30T20:06:52.822Z,100802.72
2022-07-30T20:09:21.585Z,100575.09
2022-07-30T20:11:50.809Z,100799.50
2022-07-30T20:14:20.938Z,100802.88
2022-07-30T20:16:49.583Z,100803.53
2022-07-30T20:19:20.231Z,100800.84
2022-07-30T20:21:56.521Z,100804.84
2022-07-30T20:24:26.621Z,100791.59
2022-07-30T20:26:55.296Z,100805.06
2022-07-30T20:29:23.964Z,100805.53
2022-07-30T20:31:53.563Z,100816.63
2022-07-30T20:34:25.998Z,100790.00
2022-07-30T20:36:57.815Z,100810.31
2022-07-30T20:39:46.469Z,100759.81
2022-07-30T20:42:18.577Z,100813.00
2022-07-30T20:44:50.668Z,100809.91
2022-07-30T20:47:34.298Z,100808.50
2022-07-30T20:50:09.541Z,100806.28
2022-07-30T20:52:46.719Z,100807.38
2022-07-30T20:55:17.745Z,100775.28
2022-07-30T20:58:01.949Z,100738.19
2022-07-30T21:00:37.240Z,100804.59
2022-07-30T21:03:06.747Z,100807.41
2022-07-30T21:05:44.080Z,100801.28
2022-07-30T21:08:15.895Z,100801.53
2022-07-30T21:10:46.834Z,100770.53
2022-07-30T21:13:15.484Z,100752.59
2022-07-30T21:15:45.408Z,100807.28
2022-07-30T21:18:32.597Z,100772.16
2022-07-30T21:21:04.894Z,100818.50
2022-07-30T21:23:35.641Z,100752.66
2022-07-30T21:26:10.615Z,100818.00
2022-07-30T21:28:42.231Z,100790.22
2022-07-30T21:31:11.492Z,100808.44
2022-07-30T21:33:40.528Z,100806.78
2022-07-30T21:36:10.099Z,100808.59
2022-07-30T21:38:41.813Z,100764.50
2022-07-30T21:44:01.442Z,100809.72
2022-07-30T21:46:31.587Z,100812.63
2022-07-30T21:49:00.555Z,100812.69
2022-07-30T21:51:30.294Z,100826.97
2022-07-30T21:54:06.998Z,100817.31
2022-07-30T21:56:41.488Z,100816.38
2022-07-30T21:59:10.722Z,100818.09
2022-07-30T22:01:47.452Z,100786.75
2022-07-30T22:04:16.636Z,100826.66
2022-07-30T22:06:45.584Z,100819.28
2022-07-30T22:09:33.202Z,100822.50
2022-07-30T22:12:09.271Z,100817.63
2022-07-30T22:14:41.451Z,100819.97
2022-07-30T22:17:22.763Z,100816.28
2022-07-30T22:19:58.495Z,100818.78
2022-07-30T22:22:33.039Z,100821.34
2022-07-30T22:25:09.563Z,100797.38
2022-07-30T22:27:40.103Z,100808.81
2022-07-30T22:30:26.807Z,100815.47
2022-07-30T22:33:08.126Z,100813.44
2022-07-30T22:35:37.912Z,100816.75
2022-07-30T22:38:08.235Z,100804.66
2022-07-30T22:40:39.453Z,100791.59
2022-07-30T22:43:12.543Z,100759.50
2022-07-30T22:45:59.870Z,100808.56
2022-07-30T22:48:29.228Z,100804.50
2022-07-30T22:50:58.542Z,100805.75
2022-07-30T22:54:11.173Z,100817.00
2022-07-30T22:56:23.887Z,100795.38
2022-07-30T22:58:53.178Z,100782.81
2022-07-30T23:01:21.879Z,100781.31
2022-07-30T23:03:51.696Z,100802.78
2022-07-30T23:06:22.582Z,100766.38
2022-07-30T23:08:51.545Z,100794.47
2022-07-30T23:11:23.041Z,100737.19
2022-07-30T23:12:27.581Z,100762.75
2022-07-30T23:13:53.878Z,100748.63
2022-07-30T23:16:23.215Z,100776.47
2022-07-30T23:18:52.184Z,100778.56
2022-07-30T23:21:20.874Z,100778.84
2022-07-30T23:23:49.894Z,100781.69
2022-07-30T23:26:18.581Z,100759.31
2022-07-30T23:28:48.594Z,100722.06
2022-07-30T23:31:17.470Z,100780.41
2022-07-30T23:33:46.391Z,100779.53
2022-07-30T23:36:15.186Z,100777.84
2022-07-30T23:38:43.922Z,100771.00
2022-07-30T23:41:14.986Z,100680.69
2022-07-30T23:44:00.018Z,100691.50
2022-07-30T23:46:28.757Z,100774.09
2022-07-30T23:48:57.708Z,100772.47
2022-07-30T23:51:26.828Z,100758.31
2022-07-30T23:54:03.617Z,100768.28
2022-07-30T23:56:32.499Z,100750.09
2022-07-30T23:59:02.465Z,100737.16
